Aeroporto :
LOGIN :

Iscrizione | Disclaimer

   EN    FR    IT 

 










Sommario :    VFR   VFR Marginale   IFR   IFR Intensivo   IFR Molto Intensivo
Visibilità : 
Base nubi : 
>= 8 km
>= 3000ft
5 / 8 km
1000 / 3000 ft
1500m / 5 km
500 / 1000 ft
800 / 1500m
200 / 500 ft
< 800m
< 200 ft
Simboli :   Temporali  Nebbia  Neve Forte  Precipitazioni Forti  Vento > 20 kt
SIGMETs :   Varie  Temporali  Ghiacco  Turbolenza  Onda orograficha  Ceneri Vulcaniche






- Altitudine del aeroporto : 65 ft
- Codice IATA : PIK


EGPK - Glasgow Prestwick

ULTIMO METAR :
  • 151120Z 03005KT 300V070 9999 FEW038 21/15 Q1018

METARs OBSOLETI :
  • 151050Z 03005KT 360V070 9999 FEW040 20/15 Q1018
  • 151020Z 03005KT 330V110 9999 FEW040 19/14 Q1018
  • 150950Z 06004KT 350V110 9999 FEW040 19/14 Q1018
  • 150920Z 04005KT 350V120 9999 FEW030 18/13 Q1018
  • 150850Z VRB03KT 9999 FEW020 18/13 Q1018
  • 150820Z VRB03KT 9999 FEW015 16/12 Q1018

TAF TAF EGPK
Valido dal 15 a 06 ore il 16 a 06 ore UTC


150459Z 1506/1606 05006KT 9999 FEW040
TEMPO 1506/1509 4000 BR BKN004
PROB30
TEMPO 1603/1606 BKN007



MetMap, La meteo Aeronautica in un colpo d'occhio ! - Copyright ORBIFLY Dicembre 2007 - Disclaimer

ORBIFLY MET'MAP TEAM :

Programmazione e sviluppo : Alexandra Zaïnal
Concezione : Baudouin d'Aumeries
Aiuto per la programmazione : Marc-Olivier Méhu
Supporto tecnico e logistico : Manuel Goepfert
Aiuto per la traduzione : Arnaldo La Scala

Contatto : metmap@orbifly.com




FONTI E CREDITI :

   NOAA